createdAt,value
2019-01-10T00:03:04.946Z,5.33
2019-01-10T00:05:15.977Z,6.33
2019-01-10T00:07:26.754Z,6.30
2019-01-10T00:09:37.572Z,5.73
2019-01-10T00:11:48.371Z,5.50
2019-01-10T00:13:59.211Z,6.23
2019-01-10T00:16:10.009Z,6.30
2019-01-10T00:18:20.794Z,5.97
2019-01-10T00:20:31.620Z,6.03
2019-01-10T00:22:42.432Z,5.90
2019-01-10T00:24:53.244Z,5.40
2019-01-10T00:27:04.033Z,5.67
2019-01-10T00:29:14.830Z,5.93
2019-01-10T00:31:25.765Z,5.73
2019-01-10T00:33:36.557Z,5.70
2019-01-10T00:35:47.377Z,6.07
2019-01-10T00:37:58.165Z,5.93
2019-01-10T00:40:50.635Z,5.97
2019-01-10T00:43:01.538Z,6.57
2019-01-10T00:45:54.002Z,6.17
2019-01-10T00:48:04.802Z,5.60
2019-01-10T00:50:57.271Z,6.20
2019-01-10T00:53:08.088Z,6.63
2019-01-10T00:55:38.882Z,6.93
2019-01-10T00:57:49.704Z,6.43
2019-01-10T01:00:00.550Z,6.70
2019-01-10T01:02:11.336Z,7.17
2019-01-10T01:04:22.144Z,6.60
2019-01-10T01:06:32.962Z,6.23
2019-01-10T01:08:43.857Z,6.40
2019-01-10T01:10:54.667Z,6.93
2019-01-10T01:13:47.121Z,5.90
2019-01-10T01:15:57.932Z,6.23
2019-01-10T01:18:08.727Z,6.27
2019-01-10T01:21:01.206Z,6.73
2019-01-10T01:23:12.013Z,6.57
2019-01-10T01:25:22.810Z,6.67
2019-01-10T01:27:33.631Z,6.27
2019-01-10T01:29:44.468Z,6.40
2019-01-10T01:31:55.311Z,6.70
2019-01-10T01:34:06.207Z,6.63
2019-01-10T01:36:17.114Z,6.43
2019-01-10T01:38:27.941Z,6.77
2019-01-10T01:40:38.755Z,7.17
2019-01-10T01:42:49.568Z,6.30
2019-01-10T01:45:00.383Z,7.10
2019-01-10T01:47:11.194Z,6.67
2019-01-10T01:50:03.734Z,6.47
2019-01-10T01:52:14.636Z,6.87
2019-01-10T01:54:25.440Z,6.03
2019-01-10T01:56:36.232Z,6.43
2019-01-10T01:58:47.053Z,5.83
2019-01-10T02:00:57.842Z,6.40
2019-01-10T02:03:08.671Z,6.80
2019-01-10T02:05:19.565Z,6.33
2019-01-10T02:07:30.362Z,6.90
2019-01-10T02:09:41.188Z,7.23
2019-01-10T02:14:24.464Z,6.70
2019-01-10T02:16:35.261Z,6.30
2019-01-10T02:18:46.083Z,7.17
2019-01-10T02:20:56.865Z,6.90
2019-01-10T02:23:07.879Z,7.07
2019-01-10T02:25:18.798Z,6.47
2019-01-10T02:27:29.605Z,6.13
2019-01-10T02:29:40.414Z,6.30
2019-01-10T02:31:51.221Z,7.10
2019-01-10T02:34:02.131Z,6.93
2019-01-10T02:36:12.934Z,7.27
2019-01-10T02:38:23.732Z,7.30
2019-01-10T02:40:34.659Z,7.00
2019-01-10T02:42:45.465Z,6.40
2019-01-10T02:44:56.284Z,5.93
2019-01-10T02:47:07.086Z,6.37
2019-01-10T02:49:17.897Z,6.33
2019-01-10T02:51:28.723Z,6.80
2019-01-10T02:53:39.513Z,7.13
2019-01-10T02:55:50.343Z,7.23
2019-01-10T02:58:01.138Z,6.73
2019-01-10T03:00:53.637Z,7.10
2019-01-10T03:03:04.429Z,6.63
2019-01-10T03:05:15.319Z,6.70
2019-01-10T03:07:26.132Z,6.60
2019-01-10T03:09:36.923Z,6.70
2019-01-10T03:11:47.748Z,7.47
2019-01-10T03:13:58.557Z,7.57
2019-01-10T03:16:09.369Z,7.30
2019-01-10T03:18:20.162Z,6.77
2019-01-10T03:20:30.959Z,7.73
2019-01-10T03:22:41.786Z,7.57
2019-01-10T03:24:52.585Z,7.33
2019-01-10T03:27:03.392Z,7.57
2019-01-10T03:29:14.211Z,7.30
2019-01-10T03:31:25.039Z,6.37
2019-01-10T03:33:35.954Z,7.97
2019-01-10T03:35:46.848Z,6.87
2019-01-10T03:37:57.658Z,7.27
2019-01-10T03:40:50.135Z,6.97
2019-01-10T03:43:00.960Z,6.83
2019-01-10T03:45:53.406Z,8.00
2019-01-10T03:48:04.215Z,7.40
2019-01-10T03:50:56.670Z,7.07
2019-01-10T03:53:07.501Z,7.60
2019-01-10T03:55:18.300Z,6.80
2019-01-10T03:57:29.145Z,7.77
2019-01-10T03:59:40.040Z,8.07
2019-01-10T04:01:50.848Z,8.00
2019-01-10T04:04:01.697Z,8.40
2019-01-10T04:06:12.477Z,7.57
2019-01-10T04:08:23.293Z,7.90
2019-01-10T04:10:34.072Z,8.10
2019-01-10T04:12:45.016Z,7.47
2019-01-10T04:14:55.798Z,7.20
2019-01-10T04:17:06.719Z,8.07
2019-01-10T04:19:17.539Z,8.77
2019-01-10T04:21:28.337Z,7.50
2019-01-10T04:23:39.140Z,8.80
2019-01-10T04:25:49.938Z,8.80
2019-01-10T04:28:00.741Z,8.53
2019-01-10T04:30:33.333Z,8.30
2019-01-10T04:32:44.137Z,7.93
2019-01-10T04:34:54.951Z,8.67
2019-01-10T04:37:05.790Z,7.53
2019-01-10T04:39:16.608Z,8.77
2019-01-10T04:41:27.499Z,8.20
2019-01-10T04:43:38.293Z,7.77
2019-01-10T04:45:49.093Z,8.20
2019-01-10T04:47:59.892Z,7.43
2019-01-10T04:50:52.390Z,8.17
2019-01-10T04:53:03.175Z,7.60
2019-01-10T04:55:13.997Z,6.87
2019-01-10T04:57:24.823Z,8.03
2019-01-10T04:59:35.734Z,8.30
2019-01-10T05:01:46.539Z,7.80
2019-01-10T05:03:57.344Z,7.70
2019-01-10T05:06:08.153Z,8.80
2019-01-10T05:08:18.951Z,8.23
2019-01-10T05:10:29.774Z,7.83
2019-01-10T05:12:41.820Z,7.53
2019-01-10T05:14:53.265Z,8.10
2019-01-10T05:17:04.176Z,7.87
2019-01-10T05:19:14.989Z,8.37
2019-01-10T05:21:25.804Z,8.80
2019-01-10T05:23:36.589Z,8.33
2019-01-10T05:25:47.397Z,8.47
2019-01-10T05:27:58.220Z,7.33
2019-01-10T05:30:50.667Z,9.20
2019-01-10T05:33:01.496Z,7.70
2019-01-10T05:35:12.406Z,7.60
2019-01-10T05:37:23.231Z,7.90
2019-01-10T05:39:34.039Z,8.40
2019-01-10T05:41:44.859Z,7.93
2019-01-10T05:43:55.653Z,8.43
2019-01-10T05:46:06.453Z,9.13
2019-01-10T05:48:17.319Z,8.77
2019-01-10T05:50:28.092Z,7.57
2019-01-10T05:52:39.015Z,7.60
2019-01-10T05:54:49.834Z,8.20
2019-01-10T05:57:00.623Z,8.50
2019-01-10T05:59:11.453Z,7.60
2019-01-10T06:01:22.347Z,8.50
2019-01-10T06:03:33.159Z,7.80
2019-01-10T06:05:43.948Z,7.70
2019-01-10T06:07:54.858Z,7.87
2019-01-10T06:10:47.318Z,7.90
2019-01-10T06:12:58.124Z,7.90
2019-01-10T06:15:50.577Z,8.97
2019-01-10T06:18:01.380Z,8.50
2019-01-10T06:20:32.041Z,7.70
2019-01-10T06:22:42.843Z,7.90
2019-01-10T06:24:53.660Z,7.37
2019-01-10T06:27:04.445Z,7.97
2019-01-10T06:29:15.252Z,8.80
2019-01-10T06:31:26.059Z,7.83
2019-01-10T06:33:36.910Z,8.63
2019-01-10T06:35:47.725Z,8.73
2019-01-10T06:37:58.632Z,8.73
2019-01-10T06:40:51.105Z,9.00
2019-01-10T06:43:01.909Z,8.10
2019-01-10T06:45:54.368Z,8.23
2019-01-10T06:48:05.156Z,8.30
2019-01-10T06:50:57.638Z,8.10
2019-01-10T06:53:08.446Z,7.97
2019-01-10T06:55:19.263Z,8.37
2019-01-10T06:57:30.054Z,8.70
2019-01-10T06:59:40.900Z,7.87
2019-01-10T07:01:51.705Z,8.50
2019-01-10T07:04:02.685Z,8.43
2019-01-10T07:06:13.498Z,7.73
2019-01-10T07:08:24.300Z,8.17
2019-01-10T07:10:35.113Z,8.77
2019-01-10T07:13:05.791Z,7.53
2019-01-10T07:15:16.638Z,8.53
2019-01-10T07:17:27.456Z,9.43
2019-01-10T07:19:58.128Z,8.20
2019-01-10T07:22:08.942Z,8.63
2019-01-10T07:24:21.186Z,8.53
2019-01-10T07:26:32.531Z,11.43
2019-01-10T07:28:43.430Z,8.53
2019-01-10T07:33:32.688Z,8.50
2019-01-10T07:36:25.142Z,8.63
2019-01-10T07:38:35.971Z,8.77
2019-01-10T07:40:46.768Z,9.23
2019-01-10T07:42:57.724Z,8.70
2019-01-10T07:45:50.163Z,9.97
2019-01-10T07:48:42.614Z,9.63
2019-01-10T07:50:53.414Z,9.20
2019-01-10T07:53:04.333Z,9.47
2019-01-10T07:55:15.129Z,8.37
2019-01-10T07:57:25.949Z,9.40
2019-01-10T07:59:36.756Z,9.40
2019-01-10T08:01:47.645Z,10.40
2019-01-10T08:03:58.475Z,9.67
2019-01-10T08:06:09.386Z,10.27
2019-01-10T08:08:20.318Z,9.67
2019-01-10T08:13:03.692Z,9.27
2019-01-10T08:15:56.127Z,9.27
2019-01-10T08:18:06.940Z,9.93
2019-01-10T08:20:18.147Z,9.57
2019-01-10T08:22:30.703Z,10.00
2019-01-10T08:24:41.513Z,10.13
2019-01-10T08:26:52.312Z,10.67
2019-01-10T08:29:03.132Z,9.73
2019-01-10T08:31:13.943Z,9.30
2019-01-10T08:33:24.779Z,10.77
2019-01-10T08:35:35.657Z,10.57
2019-01-10T08:37:46.568Z,10.93
2019-01-10T08:39:57.383Z,10.53
2019-01-10T08:42:08.174Z,10.83
2019-01-10T08:44:19.013Z,10.80
2019-01-10T08:46:29.777Z,11.47
2019-01-10T08:48:40.574Z,11.20
2019-01-10T08:50:51.388Z,11.87
2019-01-10T08:53:02.287Z,12.30
2019-01-10T08:55:13.114Z,9.90
2019-01-10T08:57:23.917Z,11.37
2019-01-10T08:59:34.710Z,11.53
2019-01-10T09:01:45.525Z,11.87
2019-01-10T09:03:56.337Z,10.90
2019-01-10T09:06:08.214Z,11.23
2019-01-10T09:08:19.968Z,10.67
2019-01-10T09:10:30.892Z,10.43
2019-01-10T09:12:41.685Z,9.47
2019-01-10T09:14:52.499Z,9.87
2019-01-10T09:17:03.406Z,9.23
2019-01-10T09:19:14.311Z,10.07
2019-01-10T09:21:25.118Z,10.47
2019-01-10T09:23:55.817Z,9.90
2019-01-10T09:26:06.643Z,10.03
2019-01-10T09:28:17.446Z,8.70
2019-01-10T09:30:28.281Z,8.73
2019-01-10T09:32:39.103Z,9.60
2019-01-10T09:34:50.000Z,9.43
2019-01-10T09:37:08.233Z,9.40
2019-01-10T09:39:19.053Z,10.00
2019-01-10T09:41:29.871Z,9.20
2019-01-10T09:43:40.843Z,8.83
2019-01-10T09:45:51.653Z,8.87
2019-01-10T09:48:02.667Z,8.77
2019-01-10T09:50:55.144Z,8.20
2019-01-10T09:53:06.059Z,9.33
2019-01-10T09:55:16.870Z,9.00
2019-01-10T09:57:27.690Z,8.47
2019-01-10T09:59:38.490Z,9.20
2019-01-10T10:02:31.044Z,8.83
2019-01-10T10:04:41.836Z,8.67
2019-01-10T10:06:52.649Z,8.87
2019-01-10T10:09:45.099Z,9.23
2019-01-10T10:11:55.932Z,8.13
2019-01-10T10:14:06.918Z,9.57
2019-01-10T10:16:17.813Z,10.63
2019-01-10T10:18:28.654Z,10.37
2019-01-10T10:20:39.506Z,9.17
2019-01-10T10:22:50.400Z,10.03
2019-01-10T10:25:01.414Z,9.70
2019-01-10T10:27:12.204Z,10.13
2019-01-10T10:29:23.019Z,10.80
2019-01-10T10:31:33.953Z,10.93
2019-01-10T10:33:44.909Z,9.77
2019-01-10T10:35:55.720Z,11.43
2019-01-10T10:38:06.543Z,9.73
2019-01-10T10:40:59.006Z,9.07
2019-01-10T10:43:09.834Z,8.30
2019-01-10T10:45:20.770Z,9.80
2019-01-10T10:47:31.564Z,8.33
2019-01-10T10:49:42.392Z,9.90
2019-01-10T10:51:53.231Z,9.63
2019-01-10T10:54:04.151Z,9.47
2019-01-10T10:56:15.005Z,8.17
2019-01-10T10:58:25.943Z,8.87
2019-01-10T11:00:36.736Z,9.03
2019-01-10T11:02:47.531Z,9.10
2019-01-10T11:04:58.335Z,8.00
2019-01-10T11:07:09.123Z,9.20
2019-01-10T11:09:19.962Z,9.43
2019-01-10T11:11:30.758Z,9.00
2019-01-10T11:13:41.568Z,8.53
2019-01-10T11:15:52.401Z,9.00
2019-01-10T11:18:03.388Z,9.57
2019-01-10T11:20:55.862Z,8.53
2019-01-10T11:23:10.875Z,8.77
2019-01-10T11:26:01.217Z,8.90
2019-01-10T11:28:12.010Z,8.63
2019-01-10T11:30:22.923Z,8.53
2019-01-10T11:32:33.733Z,9.90
2019-01-10T11:34:44.558Z,8.47
2019-01-10T11:36:55.371Z,9.57
2019-01-10T11:39:47.847Z,9.73
2019-01-10T11:41:58.657Z,9.87
2019-01-10T11:44:09.569Z,8.70
2019-01-10T11:46:20.502Z,8.97
2019-01-10T11:48:31.309Z,9.37
2019-01-10T11:50:42.126Z,8.83
2019-01-10T11:52:52.932Z,8.83
2019-01-10T11:55:45.402Z,8.87
2019-01-10T11:57:56.185Z,7.97
2019-01-10T12:00:27.397Z,8.47
2019-01-10T12:02:38.200Z,8.77
2019-01-10T12:04:48.998Z,9.17
2019-01-10T12:06:59.924Z,8.17
2019-01-10T12:09:10.732Z,7.73
2019-01-10T12:11:21.549Z,8.43
2019-01-10T12:13:32.394Z,8.33
2019-01-10T12:15:43.211Z,8.60
2019-01-10T12:17:54.061Z,10.20
2019-01-10T12:20:24.867Z,9.87
2019-01-10T12:22:35.687Z,11.60
2019-01-10T12:24:46.476Z,9.87
2019-01-10T12:26:57.316Z,10.17
2019-01-10T12:29:08.198Z,10.27
2019-01-10T12:31:19.024Z,9.43
2019-01-10T12:33:29.872Z,9.23
2019-01-10T12:35:40.664Z,9.27
2019-01-10T12:37:51.580Z,9.00
2019-01-10T12:40:44.029Z,9.23
2019-01-10T12:42:54.846Z,9.47
2019-01-10T12:45:47.307Z,8.73
2019-01-10T12:47:58.155Z,8.13
2019-01-10T12:50:50.580Z,7.10
2019-01-10T12:55:20.071Z,8.47
2019-01-10T12:57:30.896Z,7.93
2019-01-10T12:59:41.721Z,7.37
2019-01-10T13:01:52.535Z,8.30
2019-01-10T13:04:03.349Z,7.07
2019-01-10T13:06:14.160Z,7.27
2019-01-10T13:08:24.986Z,6.97
2019-01-10T13:10:35.804Z,7.63
2019-01-10T13:13:28.301Z,7.63
2019-01-10T13:15:39.072Z,6.93
2019-01-10T13:17:49.869Z,6.90
2019-01-10T13:20:00.688Z,6.37
2019-01-10T13:22:11.595Z,7.07
2019-01-10T13:24:22.417Z,6.90
2019-01-10T13:26:33.197Z,6.47
2019-01-10T13:28:44.032Z,5.77
2019-01-10T13:30:54.861Z,5.60
2019-01-10T13:33:05.778Z,5.27
2019-01-10T13:35:16.712Z,5.10
2019-01-10T13:37:27.529Z,5.30
2019-01-10T13:39:38.348Z,5.63
2019-01-10T13:41:49.164Z,5.47
2019-01-10T13:44:00.083Z,5.93
2019-01-10T13:46:11.012Z,5.40
2019-01-10T13:48:21.820Z,5.60
2019-01-10T13:50:32.747Z,6.23
2019-01-10T13:52:43.636Z,6.30
2019-01-10T13:54:54.459Z,5.97
2019-01-10T13:57:05.304Z,6.13
2019-01-10T13:59:16.114Z,6.00
2019-01-10T14:01:27.062Z,5.40
2019-01-10T14:03:37.935Z,6.00
2019-01-10T14:05:48.861Z,5.97
2019-01-10T14:07:59.765Z,5.37
2019-01-10T14:10:52.229Z,5.57
2019-01-10T14:13:03.144Z,5.83
2019-01-10T14:15:33.848Z,5.60
2019-01-10T14:17:44.859Z,5.93
2019-01-10T14:22:28.132Z,5.73
2019-01-10T14:24:38.989Z,6.03
2019-01-10T14:26:49.782Z,5.07
2019-01-10T14:29:00.697Z,5.53
2019-01-10T14:31:11.662Z,5.83
2019-01-10T14:33:22.506Z,5.97
2019-01-10T14:35:33.440Z,6.60
2019-01-10T14:37:44.380Z,5.90
2019-01-10T14:39:55.184Z,5.70
2019-01-10T14:42:06.022Z,5.60
2019-01-10T14:44:16.826Z,5.63
2019-01-10T14:46:27.639Z,5.40
2019-01-10T14:48:38.449Z,4.63
2019-01-10T14:50:49.268Z,5.47
2019-01-10T14:53:00.122Z,4.77
2019-01-10T14:55:52.617Z,4.87
2019-01-10T14:58:45.082Z,5.20
2019-01-10T15:00:55.862Z,3.93
2019-01-10T15:03:06.798Z,4.27
2019-01-10T15:05:59.262Z,4.60
2019-01-10T15:08:10.185Z,3.97
2019-01-10T15:10:21.085Z,4.70
2019-01-10T15:12:31.989Z,4.93
2019-01-10T15:14:42.816Z,4.30
2019-01-10T15:16:53.647Z,4.50
2019-01-10T15:19:04.583Z,4.40
2019-01-10T15:21:15.382Z,4.50
2019-01-10T15:23:26.204Z,3.60
2019-01-10T15:25:37.037Z,3.43
2019-01-10T15:27:47.839Z,3.67
2019-01-10T15:29:58.679Z,4.60
2019-01-10T15:32:09.470Z,5.20
2019-01-10T15:34:20.307Z,5.00
2019-01-10T15:36:31.231Z,4.63
2019-01-10T15:38:42.032Z,5.13
2019-01-10T15:40:52.833Z,5.20
2019-01-10T15:43:03.838Z,4.50
2019-01-10T15:45:14.869Z,4.63
2019-01-10T15:47:25.795Z,4.40
2019-01-10T15:49:36.625Z,4.63
2019-01-10T15:51:47.432Z,5.40
2019-01-10T15:53:58.234Z,5.23
2019-01-10T15:56:09.071Z,4.63
2019-01-10T15:58:19.874Z,5.10
2019-01-10T16:00:30.701Z,5.00
2019-01-10T16:02:41.629Z,5.60
2019-01-10T16:04:52.437Z,5.40
2019-01-10T16:07:03.292Z,5.23
2019-01-10T16:09:14.195Z,5.47
2019-01-10T16:11:25.030Z,6.00
2019-01-10T16:13:35.957Z,6.07
2019-01-10T16:15:46.787Z,4.37
2019-01-10T16:17:57.615Z,4.80
2019-01-10T16:20:50.103Z,4.57
2019-01-10T16:23:01.000Z,4.63
2019-01-10T16:25:53.444Z,4.67
2019-01-10T16:28:04.362Z,5.60
2019-01-10T16:30:35.033Z,5.43
2019-01-10T16:32:45.848Z,4.43
2019-01-10T16:34:56.784Z,5.63
2019-01-10T16:37:07.619Z,5.40
2019-01-10T16:39:18.461Z,4.90
2019-01-10T16:41:29.376Z,6.57
2019-01-10T16:43:40.194Z,6.30
2019-01-10T16:45:51.007Z,5.30
2019-01-10T16:48:43.492Z,5.00
2019-01-10T16:50:54.291Z,4.67
2019-01-10T16:53:05.152Z,4.67
2019-01-10T16:55:16.277Z,4.83
2019-01-10T16:57:27.096Z,5.17
2019-01-10T16:59:37.917Z,5.10
2019-01-10T17:01:48.714Z,4.70
2019-01-10T17:03:59.540Z,5.90
2019-01-10T17:06:10.343Z,6.33
2019-01-10T17:08:21.148Z,6.30
2019-01-10T17:10:32.179Z,4.63
2019-01-10T17:12:42.971Z,4.67
2019-01-10T17:14:53.835Z,4.50
2019-01-10T17:17:04.620Z,5.00
2019-01-10T17:19:15.431Z,4.73
2019-01-10T17:21:26.296Z,4.33
2019-01-10T17:23:37.097Z,4.80
2019-01-10T17:25:47.904Z,4.27
2019-01-10T17:27:58.717Z,3.90
2019-01-10T17:30:31.330Z,3.73
2019-01-10T17:32:42.137Z,5.03
2019-01-10T17:34:52.963Z,4.10
2019-01-10T17:37:03.885Z,3.87
2019-01-10T17:39:14.810Z,3.70
2019-01-10T17:41:25.640Z,3.73
2019-01-10T17:43:36.440Z,3.50
2019-01-10T17:45:47.410Z,3.23
2019-01-10T17:48:39.851Z,3.67
2019-01-10T17:50:50.678Z,3.57
2019-01-10T17:53:01.501Z,3.63
2019-01-10T17:55:53.962Z,3.60
2019-01-10T17:58:46.409Z,3.63
2019-01-10T18:00:57.272Z,3.60
2019-01-10T18:03:08.062Z,3.83
2019-01-10T18:05:18.966Z,4.50
2019-01-10T18:07:29.802Z,4.30
2019-01-10T18:09:40.612Z,4.00
2019-01-10T18:11:51.427Z,3.93
2019-01-10T18:14:02.232Z,4.30
2019-01-10T18:16:13.068Z,3.90
2019-01-10T18:18:23.983Z,4.07
2019-01-10T18:21:16.444Z,3.93
2019-01-10T18:23:27.294Z,4.37
2019-01-10T18:25:38.239Z,4.07
2019-01-10T18:28:30.699Z,4.27
2019-01-10T18:30:43.402Z,3.80
2019-01-10T18:32:54.274Z,4.13
2019-01-10T18:37:37.711Z,3.90
2019-01-10T18:39:48.557Z,3.63
2019-01-10T18:41:59.362Z,4.63
2019-01-10T18:44:10.215Z,4.20
2019-01-10T18:46:21.121Z,4.37
2019-01-10T18:48:31.954Z,4.40
2019-01-10T18:50:42.819Z,4.27
2019-01-10T18:52:53.728Z,4.83
2019-01-10T18:57:22.221Z,4.07
2019-01-10T18:59:33.079Z,4.20
2019-01-10T19:01:43.897Z,4.53
2019-01-10T19:03:54.703Z,4.90
2019-01-10T19:06:06.083Z,4.07
2019-01-10T19:08:18.312Z,4.47
2019-01-10T19:10:29.172Z,4.57
2019-01-10T19:12:39.983Z,5.00
2019-01-10T19:14:50.906Z,4.53
2019-01-10T19:17:01.766Z,4.50
2019-01-10T19:19:12.622Z,4.50
2019-01-10T19:21:23.446Z,4.60
2019-01-10T19:23:34.511Z,4.43
2019-01-10T19:25:45.340Z,4.40
2019-01-10T19:27:56.181Z,5.67
2019-01-10T19:30:48.666Z,4.73
2019-01-10T19:32:59.470Z,5.17
2019-01-10T19:35:10.581Z,5.13
2019-01-10T19:37:21.402Z,5.83
2019-01-10T19:39:32.202Z,6.63
2019-01-10T19:41:43.026Z,4.83
2019-01-10T19:43:53.840Z,5.80
2019-01-10T19:46:04.700Z,5.17
2019-01-10T19:48:15.552Z,5.00
2019-01-10T19:50:26.602Z,4.90
2019-01-10T19:52:37.440Z,4.70
2019-01-10T19:54:48.245Z,4.30
2019-01-10T19:56:59.112Z,4.10
2019-01-10T19:59:09.910Z,4.13
2019-01-10T20:03:53.094Z,4.80
2019-01-10T20:06:04.003Z,4.60
2019-01-10T20:08:14.856Z,4.67
2019-01-10T20:10:25.668Z,4.57
2019-01-10T20:12:36.493Z,4.37
2019-01-10T20:14:47.338Z,3.87
2019-01-10T20:16:58.246Z,4.43
2019-01-10T20:21:27.986Z,4.30
2019-01-10T20:23:38.837Z,5.03
2019-01-10T20:25:49.649Z,5.03
2019-01-10T20:28:00.514Z,5.37
2019-01-10T20:30:52.926Z,4.87
2019-01-10T20:33:03.868Z,5.40
2019-01-10T20:35:56.354Z,5.17
2019-01-10T20:38:07.410Z,6.00
2019-01-10T20:40:18.460Z,5.90
2019-01-10T20:42:29.301Z,6.60
2019-01-10T20:44:40.146Z,5.57
2019-01-10T20:46:51.047Z,5.67
2019-01-10T20:49:01.964Z,6.10
2019-01-10T20:51:12.791Z,5.43
2019-01-10T20:53:23.735Z,5.83
2019-01-10T20:55:34.660Z,5.00
2019-01-10T20:57:45.479Z,5.70
2019-01-10T20:59:56.340Z,5.77
2019-01-10T21:02:07.246Z,6.20
2019-01-10T21:04:18.106Z,6.63
2019-01-10T21:06:28.919Z,5.93
2019-01-10T21:08:39.731Z,6.30
2019-01-10T21:13:13.022Z,7.30
2019-01-10T21:16:05.477Z,7.70
2019-01-10T21:18:16.398Z,7.90
2019-01-10T21:20:27.447Z,6.90
2019-01-10T21:22:38.360Z,6.83
2019-01-10T21:24:49.172Z,6.67
2019-01-10T21:27:00.047Z,6.43
2019-01-10T21:29:52.703Z,6.53
2019-01-10T21:32:03.536Z,5.90
2019-01-10T21:34:14.363Z,5.57
2019-01-10T21:36:25.316Z,5.90
2019-01-10T21:38:36.106Z,5.70
2019-01-10T21:40:46.951Z,4.97
2019-01-10T21:42:57.787Z,5.43
2019-01-10T21:45:28.567Z,5.40
2019-01-10T21:47:39.503Z,6.00
2019-01-10T21:49:50.313Z,6.70
2019-01-10T21:52:01.173Z,7.63
2019-01-10T21:54:12.176Z,7.20
2019-01-10T21:56:22.995Z,6.40
2019-01-10T21:58:33.937Z,6.30
2019-01-10T22:00:44.743Z,6.97
2019-01-10T22:03:37.233Z,6.27
2019-01-10T22:05:48.133Z,6.20
2019-01-10T22:07:58.953Z,6.57
2019-01-10T22:10:51.423Z,6.80
2019-01-10T22:13:02.550Z,6.97
2019-01-10T22:15:55.031Z,7.53
2019-01-10T22:20:24.874Z,8.60
2019-01-10T22:22:35.682Z,8.43
2019-01-10T22:24:46.504Z,7.53
2019-01-10T22:26:57.298Z,7.47
2019-01-10T22:29:08.103Z,6.70
2019-01-10T22:31:18.902Z,6.73
2019-01-10T22:33:29.725Z,6.30
2019-01-10T22:35:40.762Z,6.70
2019-01-10T22:37:51.647Z,7.13
2019-01-10T22:40:44.131Z,6.00
2019-01-10T22:42:54.949Z,6.43
2019-01-10T22:45:47.413Z,6.40
2019-01-10T22:47:58.218Z,5.40
2019-01-10T22:50:50.681Z,5.87
2019-01-10T22:53:01.487Z,5.77
2019-01-10T22:55:53.943Z,6.00
2019-01-10T22:58:04.762Z,5.60
2019-01-10T23:03:17.167Z,6.50
2019-01-10T23:05:27.999Z,7.10
2019-01-10T23:07:38.788Z,6.37
2019-01-10T23:09:49.606Z,6.63
2019-01-10T23:12:00.411Z,5.97
2019-01-10T23:14:11.222Z,5.90
2019-01-10T23:16:22.244Z,5.03
2019-01-10T23:19:14.733Z,5.93
2019-01-10T23:21:25.643Z,5.93
2019-01-10T23:23:36.441Z,5.83
2019-01-10T23:26:07.132Z,6.03
2019-01-10T23:28:17.960Z,5.03
2019-01-10T23:31:09.026Z,5.50
2019-01-10T23:34:01.481Z,5.10
2019-01-10T23:36:12.449Z,4.73
2019-01-10T23:38:23.369Z,5.10
2019-01-10T23:40:34.218Z,5.13
2019-01-10T23:42:45.020Z,5.40
2019-01-10T23:44:55.835Z,5.40
2019-01-10T23:47:06.627Z,5.43
2019-01-10T23:49:17.440Z,5.70
2019-01-10T23:51:28.251Z,4.90
2019-01-10T23:53:39.079Z,5.30
2019-01-10T23:55:49.987Z,6.10
2019-01-10T23:58:00.845Z,6.40
